Alto, Texas
Current Conditions -  °F | °C
As of 2:35 AM on Saturday 25 Oct 2014 (Local Time) from KJSO Reporting Station
Clear Clear  
Wind Chill: 64°   Ceiling: Unl
Heat Index: 64°   Visibility: 10mi
Dew Point: 57°   Wind: 6mph
Humidity: 79%   Direction: 180°S
Pressure: 30.15"   Gusts: NA
Location:  31.65°N, 95.07°W
Report Text: KJSO 250735Z AUTO 18005KT 10SM CLR 17/13 A3015 RMK AO2 T01770140
Loading
Personal Weather Stations






























Interactive Weather Map
Tropical Storm Tracking
New forecast layout! Learn more

10-Day Weather Forecast

Advertisements
Track Severe Weather on mobile